createdAt,value
2022-08-03T00:08:58.426Z,18.57
2022-08-03T00:23:59.575Z,18.44
2022-08-03T00:39:00.802Z,18.32
2022-08-03T00:54:02.023Z,18.42
2022-08-03T01:09:03.148Z,18.02
2022-08-03T01:24:04.418Z,18.07
2022-08-03T01:39:05.591Z,17.95
2022-08-03T01:54:06.154Z,17.89
2022-08-03T02:09:06.895Z,17.75
2022-08-03T02:24:08.009Z,17.72
2022-08-03T02:39:09.316Z,17.41
2022-08-03T02:54:10.440Z,17.33
2022-08-03T03:09:11.550Z,16.89
2022-08-03T03:24:12.684Z,16.64
2022-08-03T03:39:15.200Z,16.31
2022-08-03T03:54:17.654Z,16.25
2022-08-03T04:09:19.161Z,16.15
2022-08-03T04:24:19.897Z,16.76
2022-08-03T04:39:21.609Z,17.66
2022-08-03T04:54:22.734Z,18.95
2022-08-03T05:09:50.129Z,20.59
2022-08-03T05:24:29.691Z,22.49
2022-08-03T05:39:30.405Z,24.18
2022-08-03T05:54:56.326Z,25.30
2022-08-03T06:10:35.409Z,26.35
2022-08-03T06:24:53.664Z,27.32
2022-08-03T06:39:52.398Z,28.22
2022-08-03T06:54:53.149Z,29.19
2022-08-03T07:09:57.640Z,29.87
2022-08-03T07:24:58.460Z,30.88
2022-08-03T07:39:59.584Z,31.38
2022-08-03T07:55:00.739Z,31.70
2022-08-03T08:10:01.941Z,32.18
2022-08-03T08:25:03.036Z,32.92
2022-08-03T08:40:03.758Z,33.21
2022-08-03T08:55:03.844Z,33.41
2022-08-03T09:10:12.495Z,33.94
2022-08-03T09:25:25.233Z,34.40
2022-08-03T09:40:16.920Z,35.19
2022-08-03T09:56:32.737Z,35.75
2022-08-03T10:10:30.403Z,35.74
2022-08-03T10:25:33.177Z,35.82
2022-08-03T10:40:51.839Z,35.43
2022-08-03T10:55:40.757Z,35.63
2022-08-03T11:10:41.976Z,36.13
2022-08-03T11:25:55.119Z,36.37
2022-08-03T11:40:49.672Z,37.05
2022-08-03T11:55:50.929Z,36.78
2022-08-03T12:10:52.004Z,37.46
2022-08-03T12:25:53.232Z,37.10
2022-08-03T12:40:56.370Z,37.44
2022-08-03T12:56:05.903Z,37.00
2022-08-03T13:11:03.767Z,37.50
2022-08-03T13:26:04.973Z,37.70
2022-08-03T13:41:06.491Z,37.70
2022-08-03T13:56:06.947Z,38.13
2022-08-03T14:11:08.007Z,37.69
2022-08-03T14:26:09.705Z,37.84
2022-08-03T14:41:12.334Z,38.11
2022-08-03T14:56:15.542Z,38.04
2022-08-03T15:11:16.263Z,37.03
2022-08-03T15:26:32.700Z,36.81
2022-08-03T15:41:23.657Z,37.25
2022-08-03T15:56:24.795Z,37.75
2022-08-03T16:11:28.010Z,37.62
2022-08-03T16:26:28.723Z,37.29
2022-08-03T16:41:53.494Z,36.32
2022-08-03T16:56:39.051Z,35.43
2022-08-03T17:11:46.861Z,34.30
2022-08-03T17:26:49.956Z,33.61
2022-08-03T17:41:51.109Z,33.04
2022-08-03T17:56:52.348Z,32.11
2022-08-03T18:11:53.500Z,31.13
2022-08-03T18:26:55.683Z,30.15
2022-08-03T18:41:57.931Z,29.15
2022-08-03T18:57:00.001Z,28.17
2022-08-03T19:12:11.237Z,27.22
2022-08-03T19:27:06.757Z,26.43
2022-08-03T19:42:20.073Z,25.62
2022-08-03T19:57:18.728Z,25.02
2022-08-03T20:12:20.402Z,24.61
2022-08-03T20:27:30.242Z,24.06
2022-08-03T20:42:31.027Z,23.68
2022-08-03T20:57:33.161Z,23.33
2022-08-03T21:12:33.751Z,22.85
2022-08-03T21:27:34.972Z,22.47
2022-08-03T21:42:36.151Z,22.33
2022-08-03T21:57:38.420Z,21.91
2022-08-03T22:12:40.789Z,21.59
2022-08-03T22:27:41.402Z,21.14
2022-08-03T22:42:41.661Z,20.76
2022-08-03T22:57:41.987Z,20.48
2022-08-03T23:12:42.563Z,20.52
2022-08-03T23:27:43.816Z,20.18
2022-08-03T23:42:45.011Z,20.17
2022-08-03T23:57:46.265Z,20.08
